Woody Richerson — WDF9621 — position and weather

sailwx.info

Track history (hours):
 
Tides and Currents Weather Stations Pressure Air Temp Water Temp Dewpoint Dewpoint Depression Visibility Wind Speed Wind Dir Waves Ship Positions

Woody Richerson

Owner: Florida Marine, LLC, Mandeville, LA. More information available from US FCC via Universal Licensing System and Coast Guard Vessel Documentation Center.

Last reported at 2017-May-25 21:56 UTC. Time now 2017-May-25 22:11 UTC.
Position N 29°46' W 095°06'.

Length 27 m; draft 2.9 m.

Type: Other ship. MMSI: 367507070.

Date/timePositionNaut miles runAvg speedWind from/ knotsBaromVisibWave heightAir tempDewpointWater temp
2017-May-25 21:56N 29°46' W 095°06'0 0.0
2017-May-25 21:29N 29°46' W 095°06'0 0.0
2017-May-25 20:59N 29°46' W 095°06'0 0.0
2017-May-25 20:29N 29°46' W 095°06'0 0.0
2017-May-25 20:00N 29°46' W 095°06'0 0.0
2017-May-25 19:28N 29°46' W 095°06'0 0.1
2017-May-25 18:57N 29°46' W 095°06'0 0.0
2017-May-25 15:24N 29°46' W 095°06'0 0.0
2017-May-25 14:22N 29°46' W 095°06'0 0.0
2017-May-25 13:26N 29°46' W 095°06'0 0.0
2017-May-25 13:00N 29°46' W 095°06'0 0.0
2017-May-25 12:18N 29°46' W 095°06'0 0.0
2017-May-25 12:00N 29°46' W 095°06'0 0.0
2017-May-25 11:17N 29°46' W 095°06'0 0.0
2017-May-25 11:00N 29°46' W 095°06'0 0.0
2017-May-25 10:23N 29°46' W 095°06'0 0.0
2017-May-25 09:52N 29°46' W 095°06'0 0.0
2017-May-25 09:30N 29°46' W 095°06'0 0.0
2017-May-25 08:54N 29°46' W 095°06'0 0.0
2017-May-25 07:55N 29°46' W 095°06'2 3.5
2017-May-25 07:17N 29°47' W 095°04'0 0.2
2017-May-25 07:00N 29°47' W 095°04'2 3.6
2017-May-25 06:30N 29°45' W 095°04'4 7.2
2017-May-25 06:01N 29°43' W 095°01'4 7.0
2017-May-25 05:30N 29°40' W 094°59'4 8.2
2017-May-25 05:00N 29°36' W 094°57'4 8.3
2017-May-25 04:30N 29°33' W 094°54'5 0.2
2017-May-23 21:00N 29°29' W 094°52'5 9.2
2017-May-23 20:30N 29°33' W 094°54'4 8.2
2017-May-23 20:00N 29°36' W 094°57'4 7.8
2017-May-23 19:30N 29°40' W 094°58'4 7.5
2017-May-23 19:00N 29°42' W 095°01'5 3.3
2017-May-23 17:20N 29°47' W 095°04'0 0.3
2017-May-23 16:55N 29°47' W 095°04'0 0.0
2017-May-23 16:23N 29°47' W 095°04'2 5.1
2017-May-23 15:59N 29°46' W 095°05'1 0.4
2017-May-23 13:50N 29°46' W 095°06'0 0.0
2017-May-23 13:28N 29°46' W 095°06'0 0.0
2017-May-23 12:49N 29°46' W 095°06'0 0.0
2017-May-23 12:22N 29°46' W 095°06'0 0.0
2017-May-23 11:59N 29°46' W 095°06'2 2.5
2017-May-23 11:03N 29°47' W 095°04'0 0.1
2017-May-23 10:59N 29°47' W 095°04'2 4.5
2017-May-23 10:30N 29°46' W 095°05'3 5.6
2017-May-23 09:56N 29°44' W 095°08'3 0.1
2017-May-21 10:56N 29°45' W 095°11'5 5.9
2017-May-21 10:06N 29°45' W 095°06'3 2.8
2017-May-21 09:09N 29°48' W 095°04'0 0.3
2017-May-21 08:51N 29°47' W 095°04'1 1.6
2017-May-21 08:25N 29°47' W 095°04'2 0.0
2017-May-19 07:33N 29°46' W 095°06'1 4.8
2017-May-19 07:25N 29°46' W 095°05'1 1.2
2017-May-19 06:20N 29°47' W 095°04'1 3.6
2017-May-19 06:00N 29°46' W 095°05'3 5.8
2017-May-19 05:25N 29°44' W 095°02'2 5.5
2017-May-19 05:00N 29°42' W 095°00'4 7.4
2017-May-19 04:30N 29°39' W 094°58'4 7.8
2017-May-19 04:00N 29°35' W 094°56'4 7.3
2017-May-19 03:30N 29°32' W 094°54'70 2.5
2017-May-17 23:25N 30°04' W 093°42'2 4.6
2017-May-17 23:00N 30°04' W 093°40'2 4.5
2017-May-17 22:29N 30°04' W 093°37'2 4.8
2017-May-17 22:00N 30°04' W 093°34'2 4.9
2017-May-17 21:30N 30°04' W 093°31'2 5.0
2017-May-17 21:00N 30°04' W 093°28'2 4.8
2017-May-17 20:31N 30°04' W 093°26'3 5.0
2017-May-17 20:00N 30°04' W 093°23'2 4.0
2017-May-17 19:31N 30°04' W 093°21'2 4.4
2017-May-17 19:01N 30°06' W 093°19'1 2.9
2017-May-17 18:30N 30°05' W 093°18'1 2.1
2017-May-17 18:01N 30°05' W 093°17'1 2.0
2017-May-17 17:30N 30°04' W 093°16'2 3.9
2017-May-17 17:00N 30°02' W 093°15'2 4.0
2017-May-17 16:30N 30°00' W 093°14'2 4.7
2017-May-17 16:00N 29°59' W 093°12'2 4.9
2017-May-17 15:30N 29°57' W 093°10'2 4.4
2017-May-17 15:01N 29°56' W 093°08'2 4.9
2017-May-17 14:30N 29°56' W 093°05'  
Track history (hours):
 
Tides and Currents Weather Stations Pressure Air Temp Water Temp Dewpoint Dewpoint Depression Visibility Wind Speed Wind Dir Waves Ship Positions

Woody Richerson

Owner: Florida Marine, LLC, Mandeville, LA. More information available from US FCC via Universal Licensing System and Coast Guard Vessel Documentation Center.

Last reported at 2017-May-25 21:56 UTC. Time now 2017-May-25 22:11 UTC.
Position N 29°46' W 095°06'.

Length 27 m; draft 2.9 m.

Type: Other ship. MMSI: 367507070.

Date/timePositionNaut miles runAvg speedWind from/ knotsBaromVisibWave heightAir tempDewpointWater temp
2017-May-25 21:56N 29°46' W 095°06'0 0.0
2017-May-25 21:29N 29°46' W 095°06'0 0.0
2017-May-25 20:59N 29°46' W 095°06'0 0.0
2017-May-25 20:29N 29°46' W 095°06'0 0.0
2017-May-25 20:00N 29°46' W 095°06'0 0.0
2017-May-25 19:28N 29°46' W 095°06'0 0.1
2017-May-25 18:57N 29°46' W 095°06'0 0.0
2017-May-25 15:24N 29°46' W 095°06'0 0.0
2017-May-25 14:22N 29°46' W 095°06'0 0.0
2017-May-25 13:26N 29°46' W 095°06'0 0.0
2017-May-25 13:00N 29°46' W 095°06'0 0.0
2017-May-25 12:18N 29°46' W 095°06'0 0.0
2017-May-25 12:00N 29°46' W 095°06'0 0.0
2017-May-25 11:17N 29°46' W 095°06'0 0.0
2017-May-25 11:00N 29°46' W 095°06'0 0.0
2017-May-25 10:23N 29°46' W 095°06'0 0.0
2017-May-25 09:52N 29°46' W 095°06'0 0.0
2017-May-25 09:30N 29°46' W 095°06'0 0.0
2017-May-25 08:54N 29°46' W 095°06'0 0.0
2017-May-25 07:55N 29°46' W 095°06'2 3.5
2017-May-25 07:17N 29°47' W 095°04'0 0.2
2017-May-25 07:00N 29°47' W 095°04'2 3.6
2017-May-25 06:30N 29°45' W 095°04'4 7.2
2017-May-25 06:01N 29°43' W 095°01'4 7.0
2017-May-25 05:30N 29°40' W 094°59'4 8.2
2017-May-25 05:00N 29°36' W 094°57'4 8.3
2017-May-25 04:30N 29°33' W 094°54'5 0.2
2017-May-23 21:00N 29°29' W 094°52'5 9.2
2017-May-23 20:30N 29°33' W 094°54'4 8.2
2017-May-23 20:00N 29°36' W 094°57'4 7.8
2017-May-23 19:30N 29°40' W 094°58'4 7.5
2017-May-23 19:00N 29°42' W 095°01'5 3.3
2017-May-23 17:20N 29°47' W 095°04'0 0.3
2017-May-23 16:55N 29°47' W 095°04'0 0.0
2017-May-23 16:23N 29°47' W 095°04'2 5.1
2017-May-23 15:59N 29°46' W 095°05'1 0.4
2017-May-23 13:50N 29°46' W 095°06'0 0.0
2017-May-23 13:28N 29°46' W 095°06'0 0.0
2017-May-23 12:49N 29°46' W 095°06'0 0.0
2017-May-23 12:22N 29°46' W 095°06'0 0.0
2017-May-23 11:59N 29°46' W 095°06'2 2.5
2017-May-23 11:03N 29°47' W 095°04'0 0.1
2017-May-23 10:59N 29°47' W 095°04'2 4.5
2017-May-23 10:30N 29°46' W 095°05'3 5.6
2017-May-23 09:56N 29°44' W 095°08'3 0.1
2017-May-21 10:56N 29°45' W 095°11'5 5.9
2017-May-21 10:06N 29°45' W 095°06'3 2.8
2017-May-21 09:09N 29°48' W 095°04'0 0.3
2017-May-21 08:51N 29°47' W 095°04'1 1.6
2017-May-21 08:25N 29°47' W 095°04'2 0.0
2017-May-19 07:33N 29°46' W 095°06'1 4.8
2017-May-19 07:25N 29°46' W 095°05'1 1.2
2017-May-19 06:20N 29°47' W 095°04'1 3.6
2017-May-19 06:00N 29°46' W 095°05'3 5.8
2017-May-19 05:25N 29°44' W 095°02'2 5.5
2017-May-19 05:00N 29°42' W 095°00'4 7.4
2017-May-19 04:30N 29°39' W 094°58'4 7.8
2017-May-19 04:00N 29°35' W 094°56'4 7.3
2017-May-19 03:30N 29°32' W 094°54'70 2.5
2017-May-17 23:25N 30°04' W 093°42'2 4.6
2017-May-17 23:00N 30°04' W 093°40'2 4.5
2017-May-17 22:29N 30°04' W 093°37'2 4.8
2017-May-17 22:00N 30°04' W 093°34'2 4.9
2017-May-17 21:30N 30°04' W 093°31'2 5.0
2017-May-17 21:00N 30°04' W 093°28'2 4.8
2017-May-17 20:31N 30°04' W 093°26'3 5.0
2017-May-17 20:00N 30°04' W 093°23'2 4.0
2017-May-17 19:31N 30°04' W 093°21'2 4.4
2017-May-17 19:01N 30°06' W 093°19'1 2.9
2017-May-17 18:30N 30°05' W 093°18'1 2.1
2017-May-17 18:01N 30°05' W 093°17'1 2.0
2017-May-17 17:30N 30°04' W 093°16'2 3.9
2017-May-17 17:00N 30°02' W 093°15'2 4.0
2017-May-17 16:30N 30°00' W 093°14'2 4.7
2017-May-17 16:00N 29°59' W 093°12'2 4.9
2017-May-17 15:30N 29°57' W 093°10'2 4.4
2017-May-17 15:01N 29°56' W 093°08'2 4.9
2017-May-17 14:30N 29°56' W 093°05'  

Dump ship's entire track history